createdAt,value
2019-01-06T00:01:12.462Z,13.80
2019-01-06T00:03:59.810Z,15.67
2019-01-06T00:06:42.837Z,12.50
2019-01-06T00:09:16.480Z,15.90
2019-01-06T00:11:50.194Z,14.00
2019-01-06T00:14:21.196Z,14.27
2019-01-06T00:17:07.103Z,13.07
2019-01-06T00:19:56.283Z,16.07
2019-01-06T00:22:36.251Z,16.73
2019-01-06T00:25:23.573Z,15.47
2019-01-06T00:28:00.382Z,13.43
2019-01-06T00:30:31.329Z,15.93
2019-01-06T00:33:02.237Z,18.57
2019-01-06T00:35:49.736Z,13.47
2019-01-06T00:38:36.934Z,14.20
2019-01-06T00:41:07.858Z,15.83
2019-01-06T00:43:41.778Z,14.83
2019-01-06T00:46:27.819Z,13.17
2019-01-06T00:49:01.606Z,19.13
2019-01-06T00:51:50.831Z,14.70
2019-01-06T00:54:21.737Z,17.67
2019-01-06T00:56:52.662Z,17.93
2019-01-06T00:59:39.174Z,19.20
2019-01-06T01:02:10.074Z,15.17
2019-01-06T01:04:46.759Z,12.60
2019-01-06T01:07:23.664Z,15.03
2019-01-06T01:10:00.311Z,14.97
2019-01-06T01:12:39.979Z,20.50
2019-01-06T01:15:10.907Z,12.97
2019-01-06T01:17:58.267Z,13.03
2019-01-06T01:20:29.183Z,15.30
2019-01-06T01:23:02.774Z,14.40
2019-01-06T01:25:39.396Z,12.10
2019-01-06T01:28:16.002Z,16.57
2019-01-06T01:31:03.293Z,12.67
2019-01-06T01:33:37.179Z,11.50
2019-01-06T01:36:13.915Z,11.77
2019-01-06T01:38:44.803Z,12.20
2019-01-06T01:41:21.943Z,13.07
2019-01-06T01:44:09.311Z,11.40
2019-01-06T01:46:49.382Z,11.23
2019-01-06T01:49:35.578Z,13.17
2019-01-06T01:52:22.984Z,11.10
2019-01-06T01:55:11.982Z,12.67
2019-01-06T01:57:45.639Z,14.23
2019-01-06T02:00:16.536Z,13.73
2019-01-06T02:02:47.525Z,11.50
2019-01-06T02:05:18.428Z,12.47
2019-01-06T02:08:05.704Z,11.33
2019-01-06T02:10:39.280Z,10.13
2019-01-06T02:13:25.501Z,11.00
2019-01-06T02:15:59.120Z,9.83
2019-01-06T02:18:46.322Z,10.20
2019-01-06T02:21:29.460Z,11.70
2019-01-06T02:24:09.587Z,9.13
2019-01-06T02:26:52.302Z,10.23
2019-01-06T02:29:23.195Z,7.83
2019-01-06T02:31:56.831Z,10.33
2019-01-06T02:34:39.571Z,9.70
2019-01-06T02:37:19.363Z,10.97
2019-01-06T02:39:50.259Z,14.83
2019-01-06T02:42:21.195Z,12.97
2019-01-06T02:45:01.142Z,14.00
2019-01-06T02:47:37.768Z,13.37
2019-01-06T02:50:14.823Z,12.37
2019-01-06T02:52:48.850Z,14.23
2019-01-06T02:55:38.069Z,12.73
2019-01-06T02:58:24.371Z,11.30
2019-01-06T03:01:04.230Z,13.80
2019-01-06T03:03:40.959Z,13.17
2019-01-06T03:06:11.860Z,13.07
2019-01-06T03:08:59.035Z,15.90
2019-01-06T03:11:29.936Z,16.17
2019-01-06T03:14:17.512Z,12.73
2019-01-06T03:16:57.352Z,19.77
2019-01-06T03:19:43.083Z,17.80
2019-01-06T03:22:13.975Z,15.23
2019-01-06T03:24:44.896Z,13.27
2019-01-06T03:27:25.018Z,22.67
2019-01-06T03:30:16.102Z,16.53
2019-01-06T03:33:03.662Z,17.73
2019-01-06T03:35:52.578Z,16.47
2019-01-06T03:38:25.894Z,15.53
2019-01-06T03:40:59.723Z,19.17
2019-01-06T03:43:48.942Z,19.53
2019-01-06T03:46:28.804Z,17.13
2019-01-06T03:49:11.270Z,20.53
2019-01-06T03:51:42.166Z,16.67
2019-01-06T03:54:15.839Z,18.17
2019-01-06T03:56:55.805Z,13.40
2019-01-06T03:59:32.427Z,14.50
2019-01-06T04:02:06.000Z,18.70
2019-01-06T04:04:39.860Z,20.37
2019-01-06T04:07:13.816Z,18.10
2019-01-06T04:09:56.680Z,20.83
2019-01-06T04:12:33.350Z,24.30
2019-01-06T04:15:05.432Z,21.30
2019-01-06T04:17:54.681Z,19.00
2019-01-06T04:20:42.282Z,21.67
2019-01-06T04:23:19.026Z,23.40
2019-01-06T04:26:06.199Z,29.63
2019-01-06T04:28:37.096Z,23.97
2019-01-06T04:31:22.966Z,23.13
2019-01-06T04:33:56.711Z,24.80
2019-01-06T04:36:39.486Z,27.93
2019-01-06T04:39:16.466Z,20.67
2019-01-06T04:42:05.718Z,27.10
2019-01-06T04:44:36.648Z,21.03
2019-01-06T04:47:17.551Z,18.57
2019-01-06T04:50:00.505Z,19.27
2019-01-06T04:52:47.649Z,14.90
2019-01-06T04:55:21.708Z,16.23
2019-01-06T04:57:52.606Z,14.27
2019-01-06T05:00:23.531Z,13.67
2019-01-06T05:02:57.269Z,12.87
2019-01-06T05:05:37.447Z,11.90
2019-01-06T05:08:14.063Z,13.67
2019-01-06T05:10:51.003Z,13.77
2019-01-06T05:13:24.595Z,16.00
2019-01-06T05:16:01.292Z,12.90
2019-01-06T05:18:32.187Z,13.00
2019-01-06T05:21:19.577Z,22.47
2019-01-06T05:24:06.734Z,12.83
2019-01-06T05:26:57.028Z,14.57
2019-01-06T05:29:27.918Z,17.87
2019-01-06T05:31:58.844Z,18.87
2019-01-06T05:34:46.052Z,19.83
2019-01-06T05:37:28.744Z,20.13
2019-01-06T05:40:16.131Z,24.60
2019-01-06T05:43:03.377Z,26.83
2019-01-06T05:45:40.500Z,24.87
2019-01-06T05:48:17.322Z,30.67
2019-01-06T05:50:51.322Z,21.53
2019-01-06T05:53:31.252Z,24.63
2019-01-06T05:56:10.664Z,21.27
2019-01-06T05:58:41.566Z,18.07
2019-01-06T06:01:12.491Z,22.70
2019-01-06T06:03:59.654Z,21.33
2019-01-06T06:06:30.582Z,25.13
2019-01-06T06:09:16.793Z,23.60
2019-01-06T06:11:50.387Z,26.90
2019-01-06T06:14:23.986Z,19.17
2019-01-06T06:17:13.013Z,23.23
2019-01-06T06:20:00.166Z,19.33
2019-01-06T06:22:39.864Z,22.00
2019-01-06T06:25:16.583Z,20.93
2019-01-06T06:27:50.302Z,24.07
2019-01-06T06:30:27.210Z,25.30
2019-01-06T06:33:04.133Z,20.40
2019-01-06T06:35:44.147Z,20.80
2019-01-06T06:38:24.095Z,25.33
2019-01-06T06:41:10.216Z,24.60
2019-01-06T06:43:53.009Z,24.60
2019-01-06T06:46:40.179Z,31.97
2019-01-06T06:49:14.035Z,32.80
2019-01-06T06:52:01.598Z,33.33
2019-01-06T06:54:48.760Z,31.40
2019-01-06T06:58:11.416Z,36.13
2019-01-06T07:01:06.025Z,32.70
2019-01-06T07:03:59.333Z,33.60
2019-01-06T07:06:42.270Z,31.50
2019-01-06T07:09:18.915Z,34.83
2019-01-06T07:11:49.836Z,28.33
2019-01-06T07:14:23.852Z,29.13
2019-01-06T07:17:26.651Z,35.23
2019-01-06T07:20:13.831Z,33.13
2019-01-06T07:22:53.530Z,32.43
2019-01-06T07:25:27.488Z,28.80
2019-01-06T07:28:13.363Z,34.13
2019-01-06T07:30:50.214Z,27.93
2019-01-06T07:33:37.462Z,30.50
2019-01-06T07:36:24.915Z,26.40
2019-01-06T07:39:12.113Z,33.40
2019-01-06T07:41:43.004Z,26.33
2019-01-06T07:44:22.846Z,25.13
2019-01-06T07:46:53.758Z,26.37
2019-01-06T07:49:30.407Z,25.33
2019-01-06T07:52:10.196Z,27.13
2019-01-06T07:54:41.124Z,23.33
2019-01-06T07:57:28.476Z,26.03
2019-01-06T08:00:15.378Z,27.40
2019-01-06T08:02:47.027Z,26.47
2019-01-06T08:05:26.825Z,25.40
2019-01-06T08:08:13.963Z,26.50
2019-01-06T08:10:44.862Z,22.03
2019-01-06T08:13:22.627Z,13.73
2019-01-06T08:15:56.026Z,18.60
2019-01-06T08:18:30.032Z,16.93
2019-01-06T08:21:17.148Z,17.03
2019-01-06T08:23:48.072Z,14.57
2019-01-06T08:26:35.226Z,13.83
2019-01-06T08:29:08.999Z,14.93
2019-01-06T08:31:42.601Z,15.27
2019-01-06T08:34:16.476Z,17.83
2019-01-06T08:36:56.227Z,15.77
2019-01-06T08:39:27.150Z,20.33
2019-01-06T08:41:58.048Z,13.70
2019-01-06T08:44:28.967Z,10.17
2019-01-06T08:47:11.786Z,12.10
2019-01-06T08:49:57.331Z,11.23
2019-01-06T08:52:33.844Z,10.30
2019-01-06T08:55:04.765Z,13.53
2019-01-06T08:57:38.349Z,14.00
2019-01-06T09:00:26.663Z,12.57
2019-01-06T09:03:06.808Z,13.17
2019-01-06T09:05:37.729Z,11.43
2019-01-06T09:08:08.622Z,11.23
2019-01-06T09:10:39.544Z,11.17
2019-01-06T09:13:16.123Z,12.53
2019-01-06T09:16:02.294Z,12.20
2019-01-06T09:18:45.438Z,10.93
2019-01-06T09:21:32.859Z,19.73
2019-01-06T09:24:09.987Z,12.13
2019-01-06T09:26:49.759Z,15.83
2019-01-06T09:29:26.502Z,11.23
2019-01-06T09:32:13.912Z,14.33
2019-01-06T09:34:47.675Z,12.77
2019-01-06T09:37:21.588Z,13.57
2019-01-06T09:39:55.212Z,11.47
2019-01-06T09:42:31.842Z,10.07
2019-01-06T09:45:05.692Z,8.60
2019-01-06T09:47:39.561Z,8.53
2019-01-06T09:50:26.766Z,8.93
2019-01-06T09:53:06.941Z,6.83
2019-01-06T09:55:43.607Z,9.07
2019-01-06T09:58:17.258Z,7.93
2019-01-06T10:00:48.194Z,6.80
2019-01-06T10:03:19.098Z,8.17
2019-01-06T10:06:06.229Z,6.90
2019-01-06T10:08:42.869Z,9.43
2019-01-06T10:11:19.779Z,6.10
2019-01-06T10:14:06.880Z,6.40
2019-01-06T10:16:54.138Z,5.87
2019-01-06T10:19:27.722Z,8.00
2019-01-06T10:22:07.655Z,5.33
2019-01-06T10:24:41.227Z,5.63
2019-01-06T10:27:17.856Z,7.37
2019-01-06T10:29:48.746Z,8.07
2019-01-06T10:32:28.495Z,5.93
2019-01-06T10:35:14.431Z,7.27
2019-01-06T10:38:03.885Z,6.57
2019-01-06T10:40:40.763Z,9.27
2019-01-06T10:43:28.063Z,8.40
2019-01-06T10:46:04.692Z,9.27
2019-01-06T10:48:47.839Z,11.27
2019-01-06T10:51:27.585Z,11.30
2019-01-06T10:54:14.973Z,9.47
2019-01-06T10:57:01.357Z,13.17
2019-01-06T10:59:32.174Z,10.93
2019-01-06T11:02:14.979Z,14.20
2019-01-06T11:04:51.737Z,14.17
2019-01-06T11:07:22.655Z,13.50
2019-01-06T11:10:02.338Z,13.50
2019-01-06T11:12:49.854Z,16.93
2019-01-06T11:15:29.509Z,13.63
2019-01-06T11:18:15.812Z,13.97
2019-01-06T11:20:46.671Z,15.37
2019-01-06T11:23:23.444Z,14.23
2019-01-06T11:26:03.415Z,14.50
2019-01-06T11:28:35.311Z,12.13
2019-01-06T11:31:15.531Z,12.13
2019-01-06T11:33:52.205Z,14.07
2019-01-06T11:36:34.934Z,12.47
2019-01-06T11:39:22.247Z,11.70
2019-01-06T11:41:53.171Z,13.17
2019-01-06T11:44:33.287Z,11.07
2019-01-06T11:47:04.212Z,16.63
2019-01-06T11:49:41.288Z,11.70
2019-01-06T11:52:21.242Z,14.30
2019-01-06T11:54:52.152Z,13.13
2019-01-06T11:57:39.572Z,12.30
2019-01-06T12:00:25.837Z,17.27
2019-01-06T12:03:02.747Z,15.60
2019-01-06T12:05:49.887Z,12.70
2019-01-06T12:08:41.001Z,14.37
2019-01-06T12:11:19.899Z,13.50
2019-01-06T12:14:00.934Z,12.17
2019-01-06T12:16:34.803Z,8.13
2019-01-06T12:19:08.490Z,8.77
2019-01-06T12:21:48.662Z,11.03
2019-01-06T12:24:22.250Z,7.67
2019-01-06T12:26:59.223Z,7.83
2019-01-06T12:29:35.989Z,10.40
2019-01-06T12:32:06.880Z,7.97
2019-01-06T12:34:52.896Z,10.50
2019-01-06T12:37:32.556Z,8.03
2019-01-06T12:40:06.171Z,6.13
2019-01-06T12:42:39.762Z,8.67
2019-01-06T12:45:28.747Z,8.67
2019-01-06T12:48:02.639Z,6.50
2019-01-06T12:50:39.518Z,11.77
2019-01-06T12:53:13.098Z,8.87
2019-01-06T12:55:45.297Z,6.00
2019-01-06T12:58:18.935Z,5.87
2019-01-06T13:01:01.880Z,6.73
2019-01-06T13:03:35.585Z,8.30
2019-01-06T13:06:15.574Z,6.23
2019-01-06T13:08:55.274Z,5.10
2019-01-06T13:11:31.853Z,5.67
2019-01-06T13:14:18.960Z,6.23
2019-01-06T13:16:52.890Z,9.73
2019-01-06T13:19:42.081Z,8.87
2019-01-06T13:22:21.912Z,11.33
2019-01-06T13:25:11.196Z,7.13
2019-01-06T13:27:59.732Z,9.30
2019-01-06T13:30:30.640Z,6.93
2019-01-06T13:33:13.713Z,7.50
2019-01-06T13:35:56.593Z,7.53
2019-01-06T13:38:37.481Z,8.20
2019-01-06T13:41:11.082Z,7.50
2019-01-06T13:43:47.867Z,8.83
2019-01-06T13:46:18.759Z,9.17
2019-01-06T13:49:04.696Z,10.23
2019-01-06T13:51:35.591Z,11.07
2019-01-06T13:54:06.519Z,9.23
2019-01-06T13:56:40.115Z,8.57
2019-01-06T13:59:17.007Z,10.03
2019-01-06T14:01:57.136Z,10.73
2019-01-06T14:04:44.138Z,9.10
2019-01-06T14:07:18.011Z,10.33
2019-01-06T14:09:48.922Z,12.87
2019-01-06T14:12:19.821Z,11.13
2019-01-06T14:14:59.705Z,12.67
2019-01-06T14:17:36.854Z,12.27
2019-01-06T14:20:16.707Z,9.67
2019-01-06T14:22:49.908Z,11.53
2019-01-06T14:25:20.852Z,10.17
2019-01-06T14:28:10.010Z,10.43
2019-01-06T14:30:43.946Z,9.40
2019-01-06T14:33:14.898Z,9.37
2019-01-06T14:35:57.891Z,10.33
2019-01-06T14:38:40.595Z,12.47
2019-01-06T14:41:11.506Z,8.60
2019-01-06T14:43:58.890Z,11.97
2019-01-06T14:46:41.614Z,11.13
2019-01-06T14:49:16.924Z,10.87
2019-01-06T14:52:04.235Z,12.17
2019-01-06T14:54:35.286Z,15.07
2019-01-06T14:57:21.232Z,16.27
2019-01-06T14:59:54.936Z,17.77
2019-01-06T15:02:31.852Z,15.93
2019-01-06T15:05:14.751Z,14.57
2019-01-06T15:07:46.717Z,15.47
2019-01-06T15:10:33.886Z,13.60
2019-01-06T15:13:20.988Z,12.97
2019-01-06T15:16:10.230Z,14.50
2019-01-06T15:18:57.607Z,13.97
2019-01-06T15:21:46.497Z,8.53
2019-01-06T15:24:34.010Z,13.43
2019-01-06T15:27:05.004Z,10.80
2019-01-06T15:29:41.736Z,9.13
2019-01-06T15:32:28.862Z,11.50
2019-01-06T15:35:14.791Z,8.83
2019-01-06T15:37:48.449Z,9.33
2019-01-06T15:40:31.311Z,9.03
2019-01-06T15:43:02.226Z,13.83
2019-01-06T15:45:39.279Z,17.33
2019-01-06T15:48:19.054Z,13.63
2019-01-06T15:51:08.003Z,15.03
2019-01-06T15:53:48.007Z,16.60
2019-01-06T15:56:20.008Z,14.70
2019-01-06T15:58:56.715Z,16.13
2019-01-06T16:01:30.628Z,15.37
2019-01-06T16:04:10.795Z,17.00
2019-01-06T16:06:50.602Z,15.73
2019-01-06T16:09:37.974Z,20.10
2019-01-06T16:12:12.215Z,17.30
2019-01-06T16:14:59.464Z,17.67
2019-01-06T16:17:36.255Z,22.93
2019-01-06T16:20:22.017Z,21.00
2019-01-06T16:22:55.595Z,20.97
2019-01-06T16:25:26.563Z,18.80
2019-01-06T16:28:13.722Z,24.30
2019-01-06T16:31:00.878Z,19.37
2019-01-06T16:33:48.225Z,21.27
2019-01-06T16:36:32.374Z,21.10
2019-01-06T16:39:05.967Z,24.50
2019-01-06T16:41:36.925Z,21.37
2019-01-06T16:44:10.663Z,21.63
2019-01-06T16:46:56.603Z,22.63
2019-01-06T16:49:27.515Z,24.20
2019-01-06T16:52:13.578Z,22.37
2019-01-06T16:54:47.425Z,21.37
2019-01-06T16:57:27.542Z,26.50
2019-01-06T17:00:07.290Z,25.67
2019-01-06T17:02:41.362Z,21.43
2019-01-06T17:05:18.500Z,26.03
2019-01-06T17:08:07.999Z,22.40
2019-01-06T17:10:38.995Z,21.30
2019-01-06T17:13:26.225Z,22.70
2019-01-06T17:15:57.132Z,21.47
2019-01-06T17:18:28.049Z,22.37
2019-01-06T17:21:01.704Z,19.03
2019-01-06T17:23:48.787Z,24.10
2019-01-06T17:26:25.730Z,20.47
2019-01-06T17:29:02.416Z,19.40
2019-01-06T17:31:39.160Z,19.30
2019-01-06T17:34:25.168Z,17.90
2019-01-06T17:36:58.287Z,20.87
2019-01-06T17:39:31.962Z,24.00
2019-01-06T17:42:05.764Z,19.90
2019-01-06T17:44:52.619Z,21.60
2019-01-06T17:47:38.537Z,16.50
2019-01-06T17:50:27.780Z,22.33
2019-01-06T17:53:15.178Z,15.60
2019-01-06T17:56:04.256Z,19.77
2019-01-06T17:58:41.172Z,16.97
2019-01-06T18:01:28.881Z,19.93
2019-01-06T18:04:14.997Z,24.57
2019-01-06T18:06:48.831Z,19.70
2019-01-06T18:09:36.007Z,23.10
2019-01-06T18:12:15.937Z,19.77
2019-01-06T18:14:58.444Z,21.43
2019-01-06T18:17:35.028Z,18.80
2019-01-06T18:20:10.125Z,16.57
2019-01-06T18:22:52.993Z,17.00
2019-01-06T18:25:33.105Z,20.43
2019-01-06T18:28:06.763Z,21.03
2019-01-06T18:30:52.749Z,20.77
2019-01-06T18:33:40.073Z,25.73
2019-01-06T18:36:26.955Z,26.80
2019-01-06T18:41:57.034Z,26.73
2019-01-06T18:44:30.740Z,22.50
2019-01-06T18:47:10.840Z,29.33
2019-01-06T18:49:41.763Z,21.27
2019-01-06T18:52:15.608Z,23.33
2019-01-06T18:54:58.577Z,22.87
2019-01-06T18:57:47.776Z,27.87
2019-01-06T19:00:24.420Z,18.77
2019-01-06T19:02:58.139Z,26.77
2019-01-06T19:05:40.814Z,22.40
2019-01-06T19:08:20.713Z,22.43
2019-01-06T19:11:07.832Z,21.63
2019-01-06T19:13:55.095Z,20.17
2019-01-06T19:16:28.783Z,30.90
2019-01-06T19:18:59.684Z,20.70
2019-01-06T19:21:42.701Z,32.57
2019-01-06T19:24:29.981Z,27.07
2019-01-06T19:27:09.683Z,27.67
2019-01-06T19:29:52.776Z,27.10
2019-01-06T19:32:40.074Z,22.30
2019-01-06T19:35:28.988Z,22.07
2019-01-06T19:38:05.866Z,25.77
2019-01-06T19:40:55.391Z,30.00
2019-01-06T19:43:26.283Z,32.00
2019-01-06T19:46:06.172Z,28.33
2019-01-06T19:48:41.015Z,35.30
2019-01-06T19:51:23.930Z,27.63
2019-01-06T19:54:07.053Z,37.53
2019-01-06T19:56:40.851Z,36.63
2019-01-06T19:59:24.059Z,28.87
2019-01-06T20:02:11.215Z,29.77
2019-01-06T20:04:48.465Z,32.60
2019-01-06T20:07:25.322Z,28.77
2019-01-06T20:10:05.342Z,33.40
2019-01-06T20:12:42.007Z,34.40
2019-01-06T20:15:18.670Z,33.00
2019-01-06T20:18:05.941Z,28.33
2019-01-06T20:20:55.252Z,33.13
2019-01-06T20:23:41.249Z,36.23
2019-01-06T20:26:12.195Z,32.40
2019-01-06T20:28:59.341Z,34.90
2019-01-06T20:31:45.591Z,37.07
2019-01-06T20:34:32.752Z,34.63
2019-01-06T20:37:09.642Z,33.67
2019-01-06T20:39:43.219Z,35.73
2019-01-06T20:42:30.243Z,34.20
2019-01-06T20:45:01.134Z,28.93
2019-01-06T20:47:39.129Z,45.10
2019-01-06T20:50:13.083Z,36.07
2019-01-06T20:53:00.304Z,33.03
2019-01-06T20:55:46.212Z,34.50
2019-01-06T20:58:26.411Z,26.87
2019-01-06T21:00:57.314Z,35.33
2019-01-06T21:03:34.218Z,35.77
2019-01-06T21:06:17.076Z,32.70
2019-01-06T21:09:04.352Z,30.57
2019-01-06T21:11:45.290Z,29.07
2019-01-06T21:14:20.218Z,27.27
2019-01-06T21:17:07.802Z,25.07
2019-01-06T21:19:38.713Z,23.87
2019-01-06T21:22:27.963Z,25.87
2019-01-06T21:24:58.858Z,26.47
2019-01-06T21:27:41.997Z,24.33
2019-01-06T21:30:21.728Z,25.33
2019-01-06T21:32:52.643Z,20.23
2019-01-06T21:35:32.508Z,24.70
2019-01-06T21:38:21.593Z,25.10
2019-01-06T21:41:08.874Z,27.40
2019-01-06T21:43:56.050Z,21.17
2019-01-06T21:46:43.164Z,26.70
2019-01-06T21:49:23.119Z,26.37
2019-01-06T21:51:54.014Z,23.17
2019-01-06T21:54:30.666Z,21.57
2019-01-06T21:57:16.814Z,29.23
2019-01-06T21:59:47.813Z,23.37
2019-01-06T22:02:42.143Z,25.53
2019-01-06T22:05:21.990Z,24.03
2019-01-06T22:08:09.314Z,21.90
2019-01-06T22:10:56.617Z,22.23
2019-01-06T22:13:33.455Z,32.40
2019-01-06T22:16:13.302Z,27.40
2019-01-06T22:19:00.522Z,28.77
2019-01-06T22:21:47.851Z,26.37
2019-01-06T22:24:24.590Z,24.73
2019-01-06T22:27:04.583Z,30.73
2019-01-06T22:29:53.159Z,26.37
2019-01-06T22:32:26.800Z,24.17
2019-01-06T22:35:00.359Z,28.03
2019-01-06T22:37:46.327Z,24.77
2019-01-06T22:40:17.238Z,33.50
2019-01-06T22:42:48.137Z,31.47
2019-01-06T22:45:24.923Z,31.23
2019-01-06T22:48:12.045Z,36.43
2019-01-06T22:50:45.691Z,37.63
2019-01-06T22:53:22.309Z,36.40
2019-01-06T22:56:09.494Z,36.17
2019-01-06T22:58:52.392Z,35.80
2019-01-06T23:01:31.799Z,40.40
2019-01-06T23:04:06.291Z,42.60
2019-01-06T23:06:53.715Z,35.27
2019-01-06T23:09:24.639Z,41.03
2019-01-06T23:12:01.440Z,37.90
2019-01-06T23:14:48.857Z,33.00
2019-01-06T23:17:35.924Z,36.97
2019-01-06T23:20:10.532Z,34.17
2019-01-06T23:22:57.831Z,48.70
2019-01-06T23:25:34.840Z,35.93
2019-01-06T23:28:20.736Z,33.97
2019-01-06T23:30:51.658Z,35.50
2019-01-06T23:33:31.542Z,31.40
2019-01-06T23:36:02.463Z,33.63
2019-01-06T23:38:42.187Z,32.50
2019-01-06T23:41:13.128Z,33.17
2019-01-06T23:43:44.032Z,30.60
2019-01-06T23:46:20.757Z,32.10
2019-01-06T23:48:54.372Z,32.83
2019-01-06T23:51:40.300Z,32.67
2019-01-06T23:54:11.193Z,31.27
2019-01-06T23:56:42.107Z,28.90
2019-01-06T23:59:29.401Z,24.83
